sensor_id;sensor_type;location;lat;lon;timestamp;P1;durP1;ratioP1;P2;durP2;ratioP2
73456;SDS011;61691;53.072;6.582;2023-12-20T00:01:46;24.30;;;4.47;;
73456;SDS011;61691;53.072;6.582;2023-12-20T00:04:12;16.00;;;2.35;;
73456;SDS011;61691;53.072;6.582;2023-12-20T00:06:39;15.10;;;2.42;;
73456;SDS011;61691;53.072;6.582;2023-12-20T00:09:06;21.05;;;2.58;;
73456;SDS011;61691;53.072;6.582;2023-12-20T00:11:33;22.35;;;3.55;;
73456;SDS011;61691;53.072;6.582;2023-12-20T00:13:59;17.00;;;2.53;;
73456;SDS011;61691;53.072;6.582;2023-12-20T00:16:26;27.95;;;3.92;;
73456;SDS011;61691;53.072;6.582;2023-12-20T00:18:53;19.08;;;2.78;;
73456;SDS011;61691;53.072;6.582;2023-12-20T00:21:20;19.27;;;2.80;;
73456;SDS011;61691;53.072;6.582;2023-12-20T00:23:46;22.52;;;3.22;;
73456;SDS011;61691;53.072;6.582;2023-12-20T00:26:13;26.92;;;4.18;;
73456;SDS011;61691;53.072;6.582;2023-12-20T00:28:40;19.30;;;3.28;;
73456;SDS011;61691;53.072;6.582;2023-12-20T00:31:07;20.02;;;2.60;;
73456;SDS011;61691;53.072;6.582;2023-12-20T00:33:33;19.08;;;2.85;;
73456;SDS011;61691;53.072;6.582;2023-12-20T00:36:00;21.85;;;3.08;;
73456;SDS011;61691;53.072;6.582;2023-12-20T00:38:27;23.10;;;3.50;;
73456;SDS011;61691;53.072;6.582;2023-12-20T00:40:54;21.10;;;2.85;;
73456;SDS011;61691;53.072;6.582;2023-12-20T00:43:21;20.40;;;3.17;;
73456;SDS011;61691;53.072;6.582;2023-12-20T00:45:48;23.75;;;2.90;;
73456;SDS011;61691;53.072;6.582;2023-12-20T00:48:15;21.67;;;3.40;;
73456;SDS011;61691;53.072;6.582;2023-12-20T00:50:41;26.77;;;3.63;;
73456;SDS011;61691;53.072;6.582;2023-12-20T00:53:08;18.80;;;3.13;;
73456;SDS011;61691;53.072;6.582;2023-12-20T00:55:35;22.88;;;3.45;;
73456;SDS011;61691;53.072;6.582;2023-12-20T00:58:02;25.67;;;3.05;;
73456;SDS011;61691;53.072;6.582;2023-12-20T01:00:28;20.70;;;3.10;;
73456;SDS011;61691;53.072;6.582;2023-12-20T01:02:55;25.02;;;3.40;;
73456;SDS011;61691;53.072;6.582;2023-12-20T01:05:22;23.00;;;3.97;;
73456;SDS011;61691;53.072;6.582;2023-12-20T01:07:49;20.00;;;3.10;;
73456;SDS011;61691;53.072;6.582;2023-12-20T01:10:16;21.73;;;3.42;;
73456;SDS011;61691;53.072;6.582;2023-12-20T01:12:43;21.60;;;2.90;;
73456;SDS011;61691;53.072;6.582;2023-12-20T01:15:10;18.67;;;3.58;;
73456;SDS011;61691;53.072;6.582;2023-12-20T01:17:37;26.45;;;3.30;;
73456;SDS011;61691;53.072;6.582;2023-12-20T01:20:04;20.60;;;2.78;;
73456;SDS011;61691;53.072;6.582;2023-12-20T01:22:32;23.20;;;3.40;;
73456;SDS011;61691;53.072;6.582;2023-12-20T01:24:59;21.40;;;3.83;;
73456;SDS011;61691;53.072;6.582;2023-12-20T01:27:25;19.55;;;3.00;;
73456;SDS011;61691;53.072;6.582;2023-12-20T01:29:52;18.60;;;2.97;;
73456;SDS011;61691;53.072;6.582;2023-12-20T01:32:19;17.98;;;3.03;;
73456;SDS011;61691;53.072;6.582;2023-12-20T01:34:46;21.83;;;3.20;;
73456;SDS011;61691;53.072;6.582;2023-12-20T01:37:13;23.05;;;3.55;;
73456;SDS011;61691;53.072;6.582;2023-12-20T01:39:40;27.88;;;4.00;;
73456;SDS011;61691;53.072;6.582;2023-12-20T01:42:06;24.23;;;3.78;;
73456;SDS011;61691;53.072;6.582;2023-12-20T01:44:33;24.15;;;3.47;;
73456;SDS011;61691;53.072;6.582;2023-12-20T01:47:00;24.08;;;3.20;;
73456;SDS011;61691;53.072;6.582;2023-12-20T01:49:27;25.00;;;3.80;;
73456;SDS011;61691;53.072;6.582;2023-12-20T01:51:54;25.90;;;3.80;;
73456;SDS011;61691;53.072;6.582;2023-12-20T01:54:21;22.15;;;3.40;;
73456;SDS011;61691;53.072;6.582;2023-12-20T01:56:49;23.05;;;3.17;;
73456;SDS011;61691;53.072;6.582;2023-12-20T01:59:17;19.88;;;3.22;;
73456;SDS011;61691;53.072;6.582;2023-12-20T02:01:46;25.05;;;3.58;;
73456;SDS011;61691;53.072;6.582;2023-12-20T02:04:13;26.20;;;3.55;;
73456;SDS011;61691;53.072;6.582;2023-12-20T02:06:40;21.65;;;2.85;;
73456;SDS011;61691;53.072;6.582;2023-12-20T02:09:08;19.05;;;3.28;;
73456;SDS011;61691;53.072;6.582;2023-12-20T02:11:35;24.35;;;3.40;;
73456;SDS011;61691;53.072;6.582;2023-12-20T02:14:02;26.35;;;3.80;;
73456;SDS011;61691;53.072;6.582;2023-12-20T02:16:29;21.23;;;3.80;;
73456;SDS011;61691;53.072;6.582;2023-12-20T02:18:56;23.63;;;3.00;;
73456;SDS011;61691;53.072;6.582;2023-12-20T02:21:31;24.20;;;3.78;;
73456;SDS011;61691;53.072;6.582;2023-12-20T02:24:00;23.08;;;3.20;;
73456;SDS011;61691;53.072;6.582;2023-12-20T02:26:26;20.90;;;3.30;;
73456;SDS011;61691;53.072;6.582;2023-12-20T02:28:53;23.75;;;3.67;;
73456;SDS011;61691;53.072;6.582;2023-12-20T02:31:21;26.63;;;3.78;;
73456;SDS011;61691;53.072;6.582;2023-12-20T02:33:48;21.80;;;3.42;;
73456;SDS011;61691;53.072;6.582;2023-12-20T02:36:15;27.25;;;3.83;;
73456;SDS011;61691;53.072;6.582;2023-12-20T02:38:42;22.95;;;3.55;;
73456;SDS011;61691;53.072;6.582;2023-12-20T02:41:09;24.60;;;3.20;;
73456;SDS011;61691;53.072;6.582;2023-12-20T02:43:35;28.60;;;3.60;;
73456;SDS011;61691;53.072;6.582;2023-12-20T02:46:02;24.70;;;4.18;;
73456;SDS011;61691;53.072;6.582;2023-12-20T02:48:29;28.38;;;3.75;;
73456;SDS011;61691;53.072;6.582;2023-12-20T02:50:56;23.52;;;3.60;;
73456;SDS011;61691;53.072;6.582;2023-12-20T02:53:23;25.52;;;3.88;;
73456;SDS011;61691;53.072;6.582;2023-12-20T02:55:49;26.52;;;3.88;;
73456;SDS011;61691;53.072;6.582;2023-12-20T02:58:16;25.73;;;3.70;;
73456;SDS011;61691;53.072;6.582;2023-12-20T03:00:44;26.27;;;3.83;;
73456;SDS011;61691;53.072;6.582;2023-12-20T03:03:11;28.05;;;4.18;;
73456;SDS011;61691;53.072;6.582;2023-12-20T03:05:37;26.67;;;4.32;;
73456;SDS011;61691;53.072;6.582;2023-12-20T03:08:04;26.88;;;5.05;;
73456;SDS011;61691;53.072;6.582;2023-12-20T03:10:31;27.15;;;4.50;;
73456;SDS011;61691;53.072;6.582;2023-12-20T03:12:58;32.83;;;4.63;;
73456;SDS011;61691;53.072;6.582;2023-12-20T03:15:25;26.05;;;4.18;;
73456;SDS011;61691;53.072;6.582;2023-12-20T03:17:52;27.35;;;3.80;;
73456;SDS011;61691;53.072;6.582;2023-12-20T03:20:18;28.25;;;4.35;;
73456;SDS011;61691;53.072;6.582;2023-12-20T03:22:45;31.58;;;4.60;;
73456;SDS011;61691;53.072;6.582;2023-12-20T03:25:12;28.15;;;4.13;;
73456;SDS011;61691;53.072;6.582;2023-12-20T03:27:39;25.90;;;4.43;;
73456;SDS011;61691;53.072;6.582;2023-12-20T03:30:06;25.10;;;4.07;;
73456;SDS011;61691;53.072;6.582;2023-12-20T03:32:33;30.48;;;4.10;;
73456;SDS011;61691;53.072;6.582;2023-12-20T03:35:00;29.67;;;4.30;;
73456;SDS011;61691;53.072;6.582;2023-12-20T03:37:27;32.15;;;4.65;;
73456;SDS011;61691;53.072;6.582;2023-12-20T03:39:54;35.08;;;6.22;;
73456;SDS011;61691;53.072;6.582;2023-12-20T03:42:21;36.17;;;4.45;;
73456;SDS011;61691;53.072;6.582;2023-12-20T03:44:48;22.38;;;4.13;;
73456;SDS011;61691;53.072;6.582;2023-12-20T03:47:15;28.27;;;4.82;;
73456;SDS011;61691;53.072;6.582;2023-12-20T03:49:42;29.42;;;5.53;;
73456;SDS011;61691;53.072;6.582;2023-12-20T03:52:08;29.15;;;4.30;;
73456;SDS011;61691;53.072;6.582;2023-12-20T03:54:35;30.92;;;4.80;;
73456;SDS011;61691;53.072;6.582;2023-12-20T03:57:02;27.05;;;4.22;;
73456;SDS011;61691;53.072;6.582;2023-12-20T03:59:29;30.25;;;4.43;;
73456;SDS011;61691;53.072;6.582;2023-12-20T04:01:56;34.83;;;5.18;;
73456;SDS011;61691;53.072;6.582;2023-12-20T04:04:23;29.45;;;5.18;;
73456;SDS011;61691;53.072;6.582;2023-12-20T04:06:50;34.17;;;4.85;;
73456;SDS011;61691;53.072;6.582;2023-12-20T04:09:17;31.10;;;4.18;;
73456;SDS011;61691;53.072;6.582;2023-12-20T04:11:44;29.55;;;4.57;;
73456;SDS011;61691;53.072;6.582;2023-12-20T04:14:10;29.98;;;4.70;;
73456;SDS011;61691;53.072;6.582;2023-12-20T04:16:37;26.67;;;4.40;;
73456;SDS011;61691;53.072;6.582;2023-12-20T04:19:05;32.65;;;5.15;;
73456;SDS011;61691;53.072;6.582;2023-12-20T04:21:32;33.13;;;4.93;;
73456;SDS011;61691;53.072;6.582;2023-12-20T04:23:59;28.73;;;4.22;;
73456;SDS011;61691;53.072;6.582;2023-12-20T04:26:26;34.65;;;5.60;;
73456;SDS011;61691;53.072;6.582;2023-12-20T04:28:53;31.90;;;5.32;;
73456;SDS011;61691;53.072;6.582;2023-12-20T04:31:20;27.80;;;4.53;;
73456;SDS011;61691;53.072;6.582;2023-12-20T04:33:47;31.30;;;6.50;;
73456;SDS011;61691;53.072;6.582;2023-12-20T04:36:14;24.65;;;4.15;;
73456;SDS011;61691;53.072;6.582;2023-12-20T04:38:41;27.77;;;5.07;;
73456;SDS011;61691;53.072;6.582;2023-12-20T04:41:08;28.48;;;4.40;;
73456;SDS011;61691;53.072;6.582;2023-12-20T04:43:34;28.15;;;4.57;;
73456;SDS011;61691;53.072;6.582;2023-12-20T04:46:01;33.13;;;4.68;;
73456;SDS011;61691;53.072;6.582;2023-12-20T04:48:28;28.35;;;5.97;;
73456;SDS011;61691;53.072;6.582;2023-12-20T04:50:55;31.70;;;5.63;;
73456;SDS011;61691;53.072;6.582;2023-12-20T04:53:21;32.30;;;5.28;;
73456;SDS011;61691;53.072;6.582;2023-12-20T04:55:49;27.88;;;4.68;;
73456;SDS011;61691;53.072;6.582;2023-12-20T04:58:16;25.65;;;4.05;;
73456;SDS011;61691;53.072;6.582;2023-12-20T05:00:43;29.65;;;4.25;;
73456;SDS011;61691;53.072;6.582;2023-12-20T05:03:09;27.85;;;4.28;;
73456;SDS011;61691;53.072;6.582;2023-12-20T05:05:36;28.40;;;4.15;;
73456;SDS011;61691;53.072;6.582;2023-12-20T05:08:03;34.03;;;6.13;;
73456;SDS011;61691;53.072;6.582;2023-12-20T05:10:30;24.55;;;4.13;;
73456;SDS011;61691;53.072;6.582;2023-12-20T05:12:57;23.00;;;4.78;;
73456;SDS011;61691;53.072;6.582;2023-12-20T05:15:24;28.60;;;4.68;;
73456;SDS011;61691;53.072;6.582;2023-12-20T05:17:51;29.65;;;4.35;;
73456;SDS011;61691;53.072;6.582;2023-12-20T05:20:17;24.83;;;4.53;;
73456;SDS011;61691;53.072;6.582;2023-12-20T05:22:44;28.50;;;4.38;;
73456;SDS011;61691;53.072;6.582;2023-12-20T05:25:11;33.95;;;4.88;;
73456;SDS011;61691;53.072;6.582;2023-12-20T05:27:38;29.27;;;4.63;;
73456;SDS011;61691;53.072;6.582;2023-12-20T05:30:05;32.20;;;4.93;;
73456;SDS011;61691;53.072;6.582;2023-12-20T05:32:33;26.55;;;4.43;;
73456;SDS011;61691;53.072;6.582;2023-12-20T05:34:59;30.55;;;5.32;;
73456;SDS011;61691;53.072;6.582;2023-12-20T05:37:26;29.63;;;4.35;;
73456;SDS011;61691;53.072;6.582;2023-12-20T05:39:53;28.27;;;4.43;;
73456;SDS011;61691;53.072;6.582;2023-12-20T05:42:20;25.10;;;5.43;;
73456;SDS011;61691;53.072;6.582;2023-12-20T05:44:46;28.88;;;5.03;;
73456;SDS011;61691;53.072;6.582;2023-12-20T05:47:17;27.85;;;4.78;;
73456;SDS011;61691;53.072;6.582;2023-12-20T05:49:44;29.10;;;5.45;;
73456;SDS011;61691;53.072;6.582;2023-12-20T05:52:11;31.40;;;4.70;;
73456;SDS011;61691;53.072;6.582;2023-12-20T05:54:38;26.35;;;4.60;;
73456;SDS011;61691;53.072;6.582;2023-12-20T05:57:05;29.20;;;5.43;;
73456;SDS011;61691;53.072;6.582;2023-12-20T05:59:32;26.75;;;4.20;;
73456;SDS011;61691;53.072;6.582;2023-12-20T06:01:58;29.15;;;4.60;;
73456;SDS011;61691;53.072;6.582;2023-12-20T06:04:25;27.50;;;4.75;;
73456;SDS011;61691;53.072;6.582;2023-12-20T06:06:52;26.27;;;4.43;;
73456;SDS011;61691;53.072;6.582;2023-12-20T06:09:19;30.38;;;5.38;;
73456;SDS011;61691;53.072;6.582;2023-12-20T06:11:46;26.02;;;4.35;;
73456;SDS011;61691;53.072;6.582;2023-12-20T06:14:12;27.23;;;4.38;;
73456;SDS011;61691;53.072;6.582;2023-12-20T06:16:39;33.50;;;4.47;;
73456;SDS011;61691;53.072;6.582;2023-12-20T06:19:06;23.00;;;4.20;;
73456;SDS011;61691;53.072;6.582;2023-12-20T06:21:33;29.63;;;4.70;;
73456;SDS011;61691;53.072;6.582;2023-12-20T06:23:59;23.85;;;4.53;;
73456;SDS011;61691;53.072;6.582;2023-12-20T06:26:26;24.85;;;4.47;;
73456;SDS011;61691;53.072;6.582;2023-12-20T06:28:53;26.45;;;4.93;;
73456;SDS011;61691;53.072;6.582;2023-12-20T06:31:19;30.73;;;4.80;;
73456;SDS011;61691;53.072;6.582;2023-12-20T06:33:46;30.17;;;4.57;;
73456;SDS011;61691;53.072;6.582;2023-12-20T06:36:13;29.50;;;5.13;;
73456;SDS011;61691;53.072;6.582;2023-12-20T06:38:40;32.45;;;5.28;;
73456;SDS011;61691;53.072;6.582;2023-12-20T06:41:08;35.92;;;6.32;;
73456;SDS011;61691;53.072;6.582;2023-12-20T06:43:40;29.85;;;4.90;;
73456;SDS011;61691;53.072;6.582;2023-12-20T06:46:15;24.75;;;3.75;;
73456;SDS011;61691;53.072;6.582;2023-12-20T06:48:43;31.10;;;5.20;;
73456;SDS011;61691;53.072;6.582;2023-12-20T06:51:12;31.67;;;4.85;;
73456;SDS011;61691;53.072;6.582;2023-12-20T06:53:40;31.48;;;6.15;;
73456;SDS011;61691;53.072;6.582;2023-12-20T06:56:07;26.25;;;4.18;;
73456;SDS011;61691;53.072;6.582;2023-12-20T06:58:35;31.63;;;5.95;;
73456;SDS011;61691;53.072;6.582;2023-12-20T07:01:03;34.92;;;4.93;;
73456;SDS011;61691;53.072;6.582;2023-12-20T07:03:31;27.73;;;4.72;;
73456;SDS011;61691;53.072;6.582;2023-12-20T07:05:57;29.52;;;5.03;;
73456;SDS011;61691;53.072;6.582;2023-12-20T07:08:24;31.50;;;5.10;;
73456;SDS011;61691;53.072;6.582;2023-12-20T07:10:51;25.85;;;4.88;;
73456;SDS011;61691;53.072;6.582;2023-12-20T07:13:18;29.08;;;4.78;;
73456;SDS011;61691;53.072;6.582;2023-12-20T07:15:44;29.83;;;5.60;;
73456;SDS011;61691;53.072;6.582;2023-12-20T07:18:11;30.45;;;5.78;;
73456;SDS011;61691;53.072;6.582;2023-12-20T07:20:38;32.78;;;5.75;;
73456;SDS011;61691;53.072;6.582;2023-12-20T07:23:05;26.98;;;4.13;;
73456;SDS011;61691;53.072;6.582;2023-12-20T07:25:32;28.10;;;4.45;;
73456;SDS011;61691;53.072;6.582;2023-12-20T07:27:59;31.77;;;5.03;;
73456;SDS011;61691;53.072;6.582;2023-12-20T07:30:26;24.60;;;3.70;;
73456;SDS011;61691;53.072;6.582;2023-12-20T07:32:53;27.90;;;5.00;;
73456;SDS011;61691;53.072;6.582;2023-12-20T07:35:20;28.88;;;4.57;;
73456;SDS011;61691;53.072;6.582;2023-12-20T07:37:47;31.10;;;5.65;;
73456;SDS011;61691;53.072;6.582;2023-12-20T07:40:14;26.15;;;4.63;;
73456;SDS011;61691;53.072;6.582;2023-12-20T07:42:43;28.90;;;4.85;;
73456;SDS011;61691;53.072;6.582;2023-12-20T07:45:10;35.42;;;6.20;;
73456;SDS011;61691;53.072;6.582;2023-12-20T07:47:38;33.95;;;5.57;;
73456;SDS011;61691;53.072;6.582;2023-12-20T07:50:05;27.73;;;5.07;;
73456;SDS011;61691;53.072;6.582;2023-12-20T07:52:32;29.88;;;4.78;;
73456;SDS011;61691;53.072;6.582;2023-12-20T07:54:59;30.45;;;5.07;;
73456;SDS011;61691;53.072;6.582;2023-12-20T07:57:28;27.25;;;4.28;;
73456;SDS011;61691;53.072;6.582;2023-12-20T07:59:55;29.00;;;5.15;;
73456;SDS011;61691;53.072;6.582;2023-12-20T08:02:22;28.92;;;4.82;;
73456;SDS011;61691;53.072;6.582;2023-12-20T08:04:49;29.02;;;4.63;;
73456;SDS011;61691;53.072;6.582;2023-12-20T08:07:15;23.92;;;4.22;;
73456;SDS011;61691;53.072;6.582;2023-12-20T08:09:42;27.67;;;5.55;;
73456;SDS011;61691;53.072;6.582;2023-12-20T08:12:10;25.85;;;4.75;;
73456;SDS011;61691;53.072;6.582;2023-12-20T08:14:37;25.08;;;4.78;;
73456;SDS011;61691;53.072;6.582;2023-12-20T08:17:04;23.80;;;4.00;;
73456;SDS011;61691;53.072;6.582;2023-12-20T08:19:31;29.17;;;5.07;;
73456;SDS011;61691;53.072;6.582;2023-12-20T08:21:58;29.27;;;4.80;;
73456;SDS011;61691;53.072;6.582;2023-12-20T08:24:25;22.92;;;4.35;;
73456;SDS011;61691;53.072;6.582;2023-12-20T08:26:51;28.77;;;5.68;;
73456;SDS011;61691;53.072;6.582;2023-12-20T08:29:18;24.55;;;5.30;;
73456;SDS011;61691;53.072;6.582;2023-12-20T08:31:45;32.33;;;5.93;;
73456;SDS011;61691;53.072;6.582;2023-12-20T08:34:13;27.60;;;4.53;;
73456;SDS011;61691;53.072;6.582;2023-12-20T08:36:41;25.15;;;4.45;;
73456;SDS011;61691;53.072;6.582;2023-12-20T08:39:08;20.92;;;3.88;;
73456;SDS011;61691;53.072;6.582;2023-12-20T08:41:35;19.17;;;3.33;;
73456;SDS011;61691;53.072;6.582;2023-12-20T08:44:03;19.45;;;2.95;;
73456;SDS011;61691;53.072;6.582;2023-12-20T08:46:30;19.83;;;2.90;;
73456;SDS011;61691;53.072;6.582;2023-12-20T08:48:57;24.20;;;3.47;;
73456;SDS011;61691;53.072;6.582;2023-12-20T08:51:24;17.88;;;3.10;;
73456;SDS011;61691;53.072;6.582;2023-12-20T08:53:52;23.65;;;3.17;;
73456;SDS011;61691;53.072;6.582;2023-12-20T08:56:19;21.58;;;3.42;;
73456;SDS011;61691;53.072;6.582;2023-12-20T08:58:46;29.52;;;3.22;;
73456;SDS011;61691;53.072;6.582;2023-12-20T09:01:13;28.10;;;5.03;;
73456;SDS011;61691;53.072;6.582;2023-12-20T09:03:41;23.60;;;4.00;;
73456;SDS011;61691;53.072;6.582;2023-12-20T09:06:08;33.80;;;4.88;;
73456;SDS011;61691;53.072;6.582;2023-12-20T09:08:35;32.22;;;6.85;;
73456;SDS011;61691;53.072;6.582;2023-12-20T09:11:01;28.73;;;4.00;;
73456;SDS011;61691;53.072;6.582;2023-12-20T09:13:28;30.02;;;4.75;;
73456;SDS011;61691;53.072;6.582;2023-12-20T09:15:56;33.20;;;4.32;;
73456;SDS011;61691;53.072;6.582;2023-12-20T09:18:23;19.10;;;2.95;;
73456;SDS011;61691;53.072;6.582;2023-12-20T09:20:50;16.20;;;2.47;;
73456;SDS011;61691;53.072;6.582;2023-12-20T09:23:17;20.30;;;2.75;;
73456;SDS011;61691;53.072;6.582;2023-12-20T09:25:44;21.05;;;2.65;;
73456;SDS011;61691;53.072;6.582;2023-12-20T09:28:12;13.57;;;2.20;;
73456;SDS011;61691;53.072;6.582;2023-12-20T09:30:39;13.30;;;1.80;;
73456;SDS011;61691;53.072;6.582;2023-12-20T09:33:07;12.77;;;1.98;;
73456;SDS011;61691;53.072;6.582;2023-12-20T09:35:34;11.52;;;1.80;;
73456;SDS011;61691;53.072;6.582;2023-12-20T09:38:02;12.38;;;1.90;;
73456;SDS011;61691;53.072;6.582;2023-12-20T09:40:28;13.00;;;2.35;;
73456;SDS011;61691;53.072;6.582;2023-12-20T09:43:14;11.93;;;1.67;;
73456;SDS011;61691;53.072;6.582;2023-12-20T09:45:46;13.02;;;1.83;;
73456;SDS011;61691;53.072;6.582;2023-12-20T09:48:15;10.30;;;1.65;;
73456;SDS011;61691;53.072;6.582;2023-12-20T09:50:44;12.55;;;1.90;;
73456;SDS011;61691;53.072;6.582;2023-12-20T09:53:17;13.38;;;2.10;;
73456;SDS011;61691;53.072;6.582;2023-12-20T09:55:45;15.23;;;1.92;;
73456;SDS011;61691;53.072;6.582;2023-12-20T09:58:12;16.50;;;2.25;;
73456;SDS011;61691;53.072;6.582;2023-12-20T10:00:39;15.50;;;2.03;;
73456;SDS011;61691;53.072;6.582;2023-12-20T10:03:06;17.00;;;2.08;;
73456;SDS011;61691;53.072;6.582;2023-12-20T10:05:34;16.45;;;1.90;;
73456;SDS011;61691;53.072;6.582;2023-12-20T10:08:02;17.90;;;2.45;;
73456;SDS011;61691;53.072;6.582;2023-12-20T10:10:30;16.55;;;2.22;;
73456;SDS011;61691;53.072;6.582;2023-12-20T10:13:11;15.68;;;2.05;;
73456;SDS011;61691;53.072;6.582;2023-12-20T10:15:40;14.88;;;2.30;;
73456;SDS011;61691;53.072;6.582;2023-12-20T10:18:08;18.08;;;2.22;;
73456;SDS011;61691;53.072;6.582;2023-12-20T10:20:35;17.08;;;2.95;;
73456;SDS011;61691;53.072;6.582;2023-12-20T10:23:03;16.55;;;2.30;;
73456;SDS011;61691;53.072;6.582;2023-12-20T10:25:30;13.77;;;2.13;;
73456;SDS011;61691;53.072;6.582;2023-12-20T10:28:08;17.50;;;2.25;;
73456;SDS011;61691;53.072;6.582;2023-12-20T10:30:37;14.52;;;1.95;;
73456;SDS011;61691;53.072;6.582;2023-12-20T10:33:05;18.23;;;2.17;;
73456;SDS011;61691;53.072;6.582;2023-12-20T10:35:34;19.92;;;2.30;;
73456;SDS011;61691;53.072;6.582;2023-12-20T10:38:05;19.35;;;2.20;;
73456;SDS011;61691;53.072;6.582;2023-12-20T10:40:35;15.52;;;2.45;;
73456;SDS011;61691;53.072;6.582;2023-12-20T10:43:04;19.05;;;2.92;;
73456;SDS011;61691;53.072;6.582;2023-12-20T10:45:32;28.50;;;4.30;;
73456;SDS011;61691;53.072;6.582;2023-12-20T10:47:59;14.95;;;2.50;;
73456;SDS011;61691;53.072;6.582;2023-12-20T10:50:28;20.85;;;2.63;;
73456;SDS011;61691;53.072;6.582;2023-12-20T10:52:57;16.80;;;2.53;;
73456;SDS011;61691;53.072;6.582;2023-12-20T10:55:25;18.20;;;2.65;;
73456;SDS011;61691;53.072;6.582;2023-12-20T10:57:54;16.95;;;2.47;;
73456;SDS011;61691;53.072;6.582;2023-12-20T11:00:29;17.38;;;2.28;;
73456;SDS011;61691;53.072;6.582;2023-12-20T11:03:00;17.80;;;2.65;;
73456;SDS011;61691;53.072;6.582;2023-12-20T11:05:31;14.15;;;2.30;;
73456;SDS011;61691;53.072;6.582;2023-12-20T11:08:12;19.10;;;2.45;;
73456;SDS011;61691;53.072;6.582;2023-12-20T11:10:55;20.17;;;2.88;;
73456;SDS011;61691;53.072;6.582;2023-12-20T11:13:37;20.83;;;4.28;;
73456;SDS011;61691;53.072;6.582;2023-12-20T11:16:10;16.15;;;2.38;;
73456;SDS011;61691;53.072;6.582;2023-12-20T11:18:37;15.00;;;2.58;;
73456;SDS011;61691;53.072;6.582;2023-12-20T11:21:06;17.27;;;4.20;;
73456;SDS011;61691;53.072;6.582;2023-12-20T11:23:33;17.50;;;2.97;;
73456;SDS011;61691;53.072;6.582;2023-12-20T11:26:01;18.33;;;2.63;;
73456;SDS011;61691;53.072;6.582;2023-12-20T11:28:29;18.17;;;2.53;;
73456;SDS011;61691;53.072;6.582;2023-12-20T11:30:57;19.83;;;2.83;;
73456;SDS011;61691;53.072;6.582;2023-12-20T11:33:31;18.63;;;3.45;;
73456;SDS011;61691;53.072;6.582;2023-12-20T11:36:02;20.45;;;3.05;;
73456;SDS011;61691;53.072;6.582;2023-12-20T11:38:36;18.45;;;2.97;;
73456;SDS011;61691;53.072;6.582;2023-12-20T11:41:07;19.05;;;2.92;;
73456;SDS011;61691;53.072;6.582;2023-12-20T11:43:37;16.95;;;2.80;;
73456;SDS011;61691;53.072;6.582;2023-12-20T11:46:08;20.90;;;2.88;;
73456;SDS011;61691;53.072;6.582;2023-12-20T11:48:39;18.33;;;2.55;;
73456;SDS011;61691;53.072;6.582;2023-12-20T11:51:10;19.88;;;2.70;;
73456;SDS011;61691;53.072;6.582;2023-12-20T11:53:37;21.70;;;2.70;;
73456;SDS011;61691;53.072;6.582;2023-12-20T11:56:08;16.13;;;2.72;;
73456;SDS011;61691;53.072;6.582;2023-12-20T11:58:35;17.02;;;2.75;;
73456;SDS011;61691;53.072;6.582;2023-12-20T12:01:02;19.50;;;2.83;;
73456;SDS011;61691;53.072;6.582;2023-12-20T12:03:31;17.60;;;2.63;;
73456;SDS011;61691;53.072;6.582;2023-12-20T12:05:57;19.20;;;2.63;;
73456;SDS011;61691;53.072;6.582;2023-12-20T12:08:24;24.52;;;2.97;;
73456;SDS011;61691;53.072;6.582;2023-12-20T12:10:51;21.23;;;2.83;;
73456;SDS011;61691;53.072;6.582;2023-12-20T12:13:19;17.35;;;2.60;;
73456;SDS011;61691;53.072;6.582;2023-12-20T12:15:47;19.05;;;2.45;;
73456;SDS011;61691;53.072;6.582;2023-12-20T12:18:17;19.10;;;2.45;;
73456;SDS011;61691;53.072;6.582;2023-12-20T12:20:44;20.70;;;2.67;;
73456;SDS011;61691;53.072;6.582;2023-12-20T12:23:12;23.60;;;4.18;;
73456;SDS011;61691;53.072;6.582;2023-12-20T12:25:39;21.55;;;2.50;;
73456;SDS011;61691;53.072;6.582;2023-12-20T12:28:09;21.80;;;3.47;;
73456;SDS011;61691;53.072;6.582;2023-12-20T12:30:36;19.15;;;2.95;;
73456;SDS011;61691;53.072;6.582;2023-12-20T12:33:11;23.08;;;3.45;;
73456;SDS011;61691;53.072;6.582;2023-12-20T12:35:39;20.20;;;2.90;;
73456;SDS011;61691;53.072;6.582;2023-12-20T12:38:07;17.52;;;2.85;;
73456;SDS011;61691;53.072;6.582;2023-12-20T12:40:35;18.80;;;2.63;;
73456;SDS011;61691;53.072;6.582;2023-12-20T12:43:03;23.60;;;2.53;;
73456;SDS011;61691;53.072;6.582;2023-12-20T12:45:30;17.73;;;2.58;;
73456;SDS011;61691;53.072;6.582;2023-12-20T12:47:57;20.67;;;3.13;;
73456;SDS011;61691;53.072;6.582;2023-12-20T12:50:24;18.92;;;2.63;;
73456;SDS011;61691;53.072;6.582;2023-12-20T12:52:51;20.35;;;3.25;;
73456;SDS011;61691;53.072;6.582;2023-12-20T12:55:18;21.15;;;2.88;;
73456;SDS011;61691;53.072;6.582;2023-12-20T12:57:45;25.92;;;3.95;;
73456;SDS011;61691;53.072;6.582;2023-12-20T13:00:12;19.23;;;3.63;;
73456;SDS011;61691;53.072;6.582;2023-12-20T13:02:40;21.08;;;3.20;;
73456;SDS011;61691;53.072;6.582;2023-12-20T13:05:09;21.55;;;3.30;;
73456;SDS011;61691;53.072;6.582;2023-12-20T13:07:36;18.30;;;3.05;;
73456;SDS011;61691;53.072;6.582;2023-12-20T13:10:04;26.27;;;3.67;;
73456;SDS011;61691;53.072;6.582;2023-12-20T13:12:32;21.80;;;3.42;;
73456;SDS011;61691;53.072;6.582;2023-12-20T13:14:59;22.27;;;2.72;;
73456;SDS011;61691;53.072;6.582;2023-12-20T13:17:26;24.58;;;3.85;;
73456;SDS011;61691;53.072;6.582;2023-12-20T13:19:55;19.87;;;3.07;;
73456;SDS011;61691;53.072;6.582;2023-12-20T13:22:22;20.20;;;3.10;;
73456;SDS011;61691;53.072;6.582;2023-12-20T13:24:49;19.48;;;2.90;;
73456;SDS011;61691;53.072;6.582;2023-12-20T13:27:17;17.92;;;2.65;;
73456;SDS011;61691;53.072;6.582;2023-12-20T13:29:44;22.38;;;3.00;;
73456;SDS011;61691;53.072;6.582;2023-12-20T13:32:10;18.48;;;2.97;;
73456;SDS011;61691;53.072;6.582;2023-12-20T13:34:37;21.05;;;2.97;;
73456;SDS011;61691;53.072;6.582;2023-12-20T13:37:04;19.65;;;3.17;;
73456;SDS011;61691;53.072;6.582;2023-12-20T13:39:31;19.60;;;2.90;;
73456;SDS011;61691;53.072;6.582;2023-12-20T13:41:58;16.23;;;2.47;;
73456;SDS011;61691;53.072;6.582;2023-12-20T13:44:27;17.30;;;3.05;;
73456;SDS011;61691;53.072;6.582;2023-12-20T13:46:54;17.27;;;2.55;;
73456;SDS011;61691;53.072;6.582;2023-12-20T13:49:20;15.93;;;2.20;;
73456;SDS011;61691;53.072;6.582;2023-12-20T13:51:52;18.60;;;2.70;;
73456;SDS011;61691;53.072;6.582;2023-12-20T13:54:21;17.98;;;2.80;;
73456;SDS011;61691;53.072;6.582;2023-12-20T13:56:48;14.70;;;2.13;;
73456;SDS011;61691;53.072;6.582;2023-12-20T13:59:34;14.88;;;2.53;;
73456;SDS011;61691;53.072;6.582;2023-12-20T14:02:02;20.08;;;3.13;;
73456;SDS011;61691;53.072;6.582;2023-12-20T14:04:30;15.82;;;2.03;;
73456;SDS011;61691;53.072;6.582;2023-12-20T14:07:08;15.98;;;2.15;;
73456;SDS011;61691;53.072;6.582;2023-12-20T14:09:38;16.98;;;2.10;;
73456;SDS011;61691;53.072;6.582;2023-12-20T14:12:05;12.90;;;2.00;;
73456;SDS011;61691;53.072;6.582;2023-12-20T14:14:32;13.77;;;2.15;;
73456;SDS011;61691;53.072;6.582;2023-12-20T14:16:59;13.32;;;1.90;;
73456;SDS011;61691;53.072;6.582;2023-12-20T14:19:26;15.43;;;2.70;;
73456;SDS011;61691;53.072;6.582;2023-12-20T14:21:53;11.25;;;1.90;;
73456;SDS011;61691;53.072;6.582;2023-12-20T14:24:20;11.77;;;2.03;;
73456;SDS011;61691;53.072;6.582;2023-12-20T14:26:47;16.75;;;2.20;;
73456;SDS011;61691;53.072;6.582;2023-12-20T14:29:14;12.20;;;2.08;;
73456;SDS011;61691;53.072;6.582;2023-12-20T14:31:41;15.82;;;2.47;;
73456;SDS011;61691;53.072;6.582;2023-12-20T14:34:07;17.55;;;2.20;;
73456;SDS011;61691;53.072;6.582;2023-12-20T14:36:35;15.98;;;1.90;;